Tropical Cyclones
[Index]
Main Index Home Page Stock Weather Photos Extreme Storms Discussion Storm News and Storm Chasing Reports Tropical Cyclones / Hurricanes / Typhoons Weather Data and Links Wild Fires / Bushfires Weather Observation Techniques Weather Picture Catalogue Tornado Pictures and Reports Stock Video Footage and DVDs for sale
Season 1990-1991 Tropical Cyclone CHRIS Track Map
Season 1990-1991 Summaries: [BoM-AU] [JTWC-AU] [JTWC-SIO] [JTWC-SPAC] [JTWC-SH]
<<- Previous TC | JTWC 1990-1991 Season | Next TC ->>

click for intensity scale information  Lat/long Grid: Show Hide

 Date Labels: Show Hide

Joint Typhoon Warning Centre Cyclone Data

Name: CHRIS

15 Feb 1991 18:00 UTC to 23 Feb 1991 12:00 UTC

    date/time    lat    long     hPa   cat  kts
1991-02-15 18   15.4   119.3                  20          
1991-02-16 00   15.0   120.0                  20          
1991-02-16 06   15.1   120.5                  25          
1991-02-16 12   15.2   120.8                  30          
1991-02-16 18   15.3   120.9                  30          
1991-02-17 00   15.4   121.0                  35          
1991-02-17 06   15.5   121.1                  35          
1991-02-17 12   15.6   121.0            1     40          
1991-02-17 18   15.6   120.8            1     40          
1991-02-18 00   15.5   120.6            1     45          
1991-02-18 06   15.4   120.3            1     45          
1991-02-18 12   15.5   119.6            1     50          
1991-02-18 18   15.7   118.3            1     50          
1991-02-19 00   15.7   116.9            1     50          
1991-02-19 06   15.6   115.9            1     50          
1991-02-19 12   15.6   115.0            1     50          
1991-02-19 18   15.8   114.1            1     50          
1991-02-20 00   16.0   113.4            1     50          
1991-02-20 06   16.2   112.9            1     45          
1991-02-20 12   16.3   112.3            1     40          
1991-02-20 18   16.4   111.8            1     40          
1991-02-21 00   16.4   111.1                  35          
1991-02-21 06   16.3   110.4                  30          
1991-02-21 12   16.2   109.9                  30          
1991-02-21 18   16.2   109.7                  30          
1991-02-22 00   16.2   109.5                  30          
1991-02-22 06   16.3   109.4                  30          
1991-02-22 12   16.4   109.4                  30          
1991-02-22 18   16.6   109.5                  30          
1991-02-23 00   16.8   110.0                  25          
1991-02-23 06   16.9   110.8                  25          
1991-02-23 12   17.0   111.7                  20          
Winds are 1-min average.

Tropical cyclone tracks developed by Michael Bath using data from the Joint Typhoon Warning Centre Best Tracks and Google Maps.


[Australian Severe Weather index] [Copyright Notice] [Email Contacts] [Search This Site] [Privacy Policy]
Document: tropical_cyclone_chris.htm Updated: 18 September 2016